Huvudsida
METAR-TAF:

METAR-TAF

Flygplatser :

Nadi International Airport

Nadi, Fiji

latitud: 17-45S, longitud: 177-27E, höjd: 13 m

Aktuellt väderrapport

Denna rapport gjordes för 10 minuter sedan, klockan 10:00 UTC
Vind 2 kt varierande vindriktning
Temperatur 23°C
Fuktighet 94%
Tryck 1013 hPa
Sikt 10 km eller mer
Få moln på en höjd av 2800 ft
Spridda moln på en höjd av 4800 ft

METAR: NFFN 271000Z VRB02KT 9999 FEW028 SCT048 23/22 Q1013 NOSIG

Tid: 22:10 (10:10 UTC)

Väderprognos

Denna rapport gjordes för 1 timme och 16 minuter sedan, klockan 08:54 UTC
Prognos gäller från 27 kl. 08 UTC till 28 kl. 06 UTC
Vind 5 kt från ost
Sikt 10 km eller mer
Spridda moln på en höjd av 2800 ft
Brutna moln på en höjd av 4800 ft
Blir
från 27 kl. 21 UTC till 27 kl. 23 UTC
Vind 10 kt från väst/nordväst

TAF: NFFN 270854Z 2708/2806 09005KT 9999 SCT028 BKN048 BECMG 2721/2723 29010KT

Aktuella väderrapporter och prognoser från 4000 flygplatser (METAR- och TAF-rapporter).

De tillgängliga stationerna syns som gula och röda prickar på kartan.

För musen över prickarna för att se namnen på stationerna.

Klicka sedan för att få väderrapporter och prognoser.

För att ändra kartan: Klicka på de gröna knapparna med ett svart kors på för att zooma in; den gröna knappen med ett streck på för att zooma ut; eller på de gröna pilarna för angränsande kartor.


METAR-TAF: